createdAt,value
2022-11-02T00:01:09.666Z,50.23
2022-11-02T00:03:37.570Z,55.50
2022-11-02T00:06:05.564Z,52.30
2022-11-02T00:08:33.387Z,53.80
2022-11-02T00:11:01.231Z,52.00
2022-11-02T00:13:29.094Z,54.00
2022-11-02T00:15:58.518Z,51.53
2022-11-02T00:18:26.378Z,51.93
2022-11-02T00:20:54.217Z,53.43
2022-11-02T00:23:22.066Z,57.80
2022-11-02T00:25:52.958Z,59.00
2022-11-02T00:28:21.090Z,55.13
2022-11-02T00:30:49.052Z,57.57
2022-11-02T00:33:18.411Z,57.10
2022-11-02T00:35:46.814Z,55.30
2022-11-02T00:38:14.918Z,50.50
2022-11-02T00:40:42.806Z,48.43
2022-11-02T00:43:10.625Z,42.83
2022-11-02T00:45:38.745Z,49.43
2022-11-02T00:48:07.655Z,44.37
2022-11-02T00:50:37.047Z,46.23
2022-11-02T00:53:04.886Z,51.53
2022-11-02T00:55:32.710Z,49.70
2022-11-02T00:58:00.716Z,44.60
2022-11-02T01:00:28.711Z,44.30
2022-11-02T01:02:56.537Z,46.00
2022-11-02T01:05:24.390Z,47.63
2022-11-02T01:07:53.875Z,42.03
2022-11-02T01:10:21.993Z,43.97
2022-11-02T01:12:49.930Z,48.07
2022-11-02T01:15:17.935Z,46.13
2022-11-02T01:17:45.765Z,46.70
2022-11-02T01:20:14.274Z,43.67
2022-11-02T01:22:42.113Z,39.83
2022-11-02T01:25:11.489Z,43.20
2022-11-02T01:27:39.361Z,38.57
2022-11-02T01:30:08.255Z,42.83
2022-11-02T01:32:36.130Z,44.80
2022-11-02T01:35:05.604Z,48.63
2022-11-02T01:37:33.451Z,49.27
2022-11-02T01:40:01.478Z,40.57
2022-11-02T01:42:30.675Z,39.67
2022-11-02T01:44:58.503Z,37.23
2022-11-02T01:47:31.325Z,36.40
2022-11-02T01:50:04.371Z,36.57
2022-11-02T01:52:35.680Z,34.83
2022-11-02T01:55:08.137Z,40.87
2022-11-02T01:57:39.156Z,34.03
2022-11-02T02:00:09.955Z,40.17
2022-11-02T02:02:43.862Z,41.77
2022-11-02T02:05:14.723Z,37.47
2022-11-02T02:07:43.049Z,41.07
2022-11-02T02:10:11.265Z,36.67
2022-11-02T02:12:43.734Z,41.23
2022-11-02T02:15:13.122Z,42.27
2022-11-02T02:17:48.149Z,44.37
2022-11-02T02:20:27.355Z,36.40
2022-11-02T02:23:19.518Z,45.57
2022-11-02T02:26:05.469Z,42.90
2022-11-02T02:28:42.568Z,39.47
2022-11-02T02:31:15.819Z,44.07
2022-11-02T02:33:50.601Z,37.50
2022-11-02T02:36:22.754Z,39.90
2022-11-02T02:38:59.866Z,44.90
2022-11-02T02:41:39.266Z,48.67
2022-11-02T02:44:12.063Z,43.53
2022-11-02T02:46:46.629Z,44.60
2022-11-02T02:49:19.233Z,47.90
2022-11-02T02:51:48.409Z,40.93
2022-11-02T02:54:20.567Z,43.50
2022-11-02T02:56:53.806Z,47.77
2022-11-02T02:59:27.100Z,38.40
2022-11-02T03:01:57.140Z,39.77
2022-11-02T03:04:25.771Z,46.00
2022-11-02T03:06:58.140Z,42.03
2022-11-02T03:09:33.542Z,44.73
2022-11-02T03:12:14.166Z,44.47
2022-11-02T03:14:55.035Z,41.57
2022-11-02T03:17:31.710Z,46.77
2022-11-02T03:20:09.010Z,39.57
2022-11-02T03:22:48.362Z,42.97
2022-11-02T03:25:20.119Z,37.20
2022-11-02T03:27:54.325Z,34.20
2022-11-02T03:30:25.581Z,35.00
2022-11-02T03:33:02.288Z,33.23
2022-11-02T03:35:35.703Z,37.27
2022-11-02T03:38:07.583Z,35.23
2022-11-02T03:40:40.418Z,29.03
2022-11-02T03:43:08.673Z,27.97
2022-11-02T03:45:42.091Z,28.37
2022-11-02T03:48:13.834Z,33.80
2022-11-02T03:50:47.427Z,32.83
2022-11-02T03:53:22.260Z,30.70
2022-11-02T03:55:54.053Z,24.60
2022-11-02T03:58:21.913Z,27.47
2022-11-02T04:00:54.465Z,22.57
2022-11-02T04:03:25.084Z,20.73
2022-11-02T04:05:53.026Z,20.57
2022-11-02T04:08:29.330Z,22.37
2022-11-02T04:11:14.801Z,21.70
2022-11-02T04:14:00.188Z,23.23
2022-11-02T04:16:29.404Z,22.83
2022-11-02T04:19:14.873Z,22.30
2022-11-02T04:22:03.093Z,21.67
2022-11-02T04:24:48.491Z,21.70
2022-11-02T04:27:20.513Z,20.47
2022-11-02T04:29:48.669Z,25.33
2022-11-02T04:32:38.833Z,30.20
2022-11-02T04:35:07.046Z,26.20
2022-11-02T04:37:57.177Z,22.67
2022-11-02T04:40:25.157Z,24.67
2022-11-02T04:42:52.990Z,26.77
2022-11-02T04:45:20.838Z,20.37
2022-11-02T04:47:50.038Z,24.97
2022-11-02T04:50:18.055Z,25.33
2022-11-02T04:52:45.932Z,23.93
2022-11-02T04:55:13.787Z,27.80
2022-11-02T04:57:46.410Z,31.07
2022-11-02T05:00:15.634Z,24.83
2022-11-02T05:02:43.800Z,20.80
2022-11-02T05:05:13.117Z,21.10
2022-11-02T05:07:41.134Z,18.27
2022-11-02T05:10:10.285Z,20.83
2022-11-02T05:12:38.246Z,22.10
2022-11-02T05:15:07.102Z,23.70
2022-11-02T05:17:34.941Z,17.40
2022-11-02T05:20:03.946Z,26.87
2022-11-02T05:22:33.294Z,25.03
2022-11-02T05:25:01.131Z,20.33
2022-11-02T05:27:28.949Z,28.87
2022-11-02T05:29:56.755Z,27.20
2022-11-02T05:32:24.624Z,28.30
2022-11-02T05:34:52.508Z,25.00
2022-11-02T05:37:20.351Z,27.03
2022-11-02T05:39:50.619Z,30.60
2022-11-02T05:42:18.722Z,36.60
2022-11-02T05:44:46.573Z,48.67
2022-11-02T05:47:14.405Z,45.93
2022-11-02T05:49:42.422Z,46.10
2022-11-02T05:52:10.302Z,37.57
2022-11-02T05:54:38.136Z,37.17
2022-11-02T05:57:07.640Z,35.33
2022-11-02T05:59:35.474Z,35.07
2022-11-02T06:02:03.423Z,29.60
2022-11-02T06:04:31.430Z,30.30
2022-11-02T06:06:59.252Z,31.33
2022-11-02T06:09:27.661Z,32.37
2022-11-02T06:11:57.270Z,31.03
2022-11-02T06:14:26.658Z,28.60
2022-11-02T06:16:54.483Z,30.83
2022-11-02T06:19:22.377Z,30.10
2022-11-02T06:21:50.231Z,29.33
2022-11-02T06:24:18.116Z,25.07
2022-11-02T06:26:46.858Z,28.40
2022-11-02T06:29:15.036Z,24.50
2022-11-02T06:31:44.267Z,24.23
2022-11-02T06:34:12.149Z,28.03
2022-11-02T06:36:39.977Z,22.40
2022-11-02T06:39:07.842Z,23.27
2022-11-02T06:41:35.697Z,24.03
2022-11-02T06:44:03.584Z,26.97
2022-11-02T06:46:31.374Z,24.90
2022-11-02T06:49:00.598Z,24.80
2022-11-02T06:51:28.444Z,25.43
2022-11-02T06:53:56.451Z,26.77
2022-11-02T06:56:24.260Z,24.17
2022-11-02T06:58:52.183Z,27.60
2022-11-02T07:01:20.125Z,23.23
2022-11-02T07:03:48.026Z,40.33
2022-11-02T07:06:17.243Z,26.10
2022-11-02T07:08:45.150Z,21.83
2022-11-02T07:11:17.182Z,20.17
2022-11-02T07:13:45.313Z,28.70
2022-11-02T07:16:13.349Z,26.93
2022-11-02T07:18:41.751Z,22.60
2022-11-02T07:21:11.482Z,26.70
2022-11-02T07:27:31.262Z,27.58
2022-11-02T07:29:59.350Z,30.40
2022-11-02T07:32:27.259Z,29.55
2022-11-02T07:34:55.113Z,27.63
2022-11-02T07:37:22.930Z,31.92
2022-11-02T07:39:50.773Z,33.67
2022-11-02T07:42:18.696Z,27.02
2022-11-02T07:44:47.945Z,30.35
2022-11-02T07:47:15.814Z,28.17
2022-11-02T07:49:43.731Z,33.22
2022-11-02T07:52:11.548Z,32.45
2022-11-02T07:54:44.336Z,30.33
2022-11-02T07:57:12.561Z,35.42
2022-11-02T07:59:40.385Z,35.50
2022-11-02T08:02:13.648Z,29.35
2022-11-02T08:04:44.081Z,37.00
2022-11-02T08:07:13.027Z,34.38
2022-11-02T08:09:40.922Z,34.55
2022-11-02T08:12:08.855Z,40.53
2022-11-02T08:14:36.681Z,33.72
2022-11-02T08:17:04.595Z,27.92
2022-11-02T08:19:33.907Z,30.15
2022-11-02T08:22:01.753Z,33.65
2022-11-02T08:24:29.619Z,27.23
2022-11-02T08:26:57.446Z,30.30
2022-11-02T08:29:25.278Z,28.20
2022-11-02T08:31:53.155Z,27.38
2022-11-02T08:34:20.974Z,31.48
2022-11-02T08:36:50.180Z,28.90
2022-11-02T08:39:19.247Z,30.58
2022-11-02T08:41:47.220Z,28.05
2022-11-02T08:44:15.070Z,27.88
2022-11-02T08:46:42.986Z,32.03
2022-11-02T08:49:10.898Z,32.50
2022-11-02T08:51:38.761Z,31.27
2022-11-02T08:54:07.997Z,35.30
2022-11-02T08:56:35.904Z,34.40
2022-11-02T08:59:03.795Z,27.55
2022-11-02T09:01:31.684Z,28.85
2022-11-02T09:03:59.575Z,29.67
2022-11-02T09:06:27.430Z,29.13
2022-11-02T09:08:57.941Z,35.67
2022-11-02T09:11:28.299Z,29.35
2022-11-02T09:13:57.267Z,30.23
2022-11-02T09:16:25.254Z,33.92
2022-11-02T09:18:53.094Z,28.20
2022-11-02T09:21:20.917Z,36.88
2022-11-02T09:23:49.299Z,31.85
2022-11-02T09:26:17.180Z,30.52
2022-11-02T09:28:46.406Z,27.10
2022-11-02T09:31:14.261Z,26.30
2022-11-02T09:33:42.140Z,25.05
2022-11-02T09:36:10.722Z,28.05
2022-11-02T09:38:38.623Z,28.65
2022-11-02T09:41:15.418Z,31.05
2022-11-02T09:43:54.235Z,28.08
2022-11-02T09:46:26.942Z,28.77
2022-11-02T09:48:59.114Z,27.20
2022-11-02T09:51:30.379Z,25.35
2022-11-02T09:54:11.646Z,25.73
2022-11-02T09:56:45.654Z,30.90
2022-11-02T09:59:17.214Z,29.70
2022-11-02T10:01:59.933Z,25.20
2022-11-02T10:04:55.163Z,25.45
2022-11-02T10:07:39.489Z,28.83
2022-11-02T10:10:15.187Z,24.65
2022-11-02T10:12:52.459Z,22.83
2022-11-02T10:15:26.301Z,21.55
2022-11-02T10:17:58.915Z,22.33
2022-11-02T10:20:28.606Z,25.02
2022-11-02T10:23:03.749Z,21.27
2022-11-02T10:25:31.925Z,30.25
2022-11-02T10:28:04.794Z,24.90
2022-11-02T10:30:34.416Z,29.48
2022-11-02T10:33:02.599Z,25.58
2022-11-02T10:35:57.759Z,28.92
2022-11-02T10:38:39.291Z,30.90
2022-11-02T10:41:21.803Z,27.88
2022-11-02T10:44:10.029Z,27.38
2022-11-02T10:46:54.989Z,25.10
2022-11-02T10:49:46.727Z,27.00
2022-11-02T10:52:16.825Z,27.73
2022-11-02T10:54:44.663Z,24.48
2022-11-02T10:57:13.912Z,24.08
2022-11-02T10:59:42.123Z,27.38
2022-11-02T11:02:14.607Z,21.55
2022-11-02T11:04:43.906Z,29.40
2022-11-02T11:07:18.047Z,23.63
2022-11-02T11:09:51.726Z,25.10
2022-11-02T11:12:23.650Z,27.23
2022-11-02T11:20:37.341Z,21.17
2022-11-02T11:23:20.150Z,25.23
2022-11-02T11:26:02.261Z,21.00
2022-11-02T11:28:33.450Z,21.20
2022-11-02T11:31:08.903Z,16.95
2022-11-02T11:33:46.437Z,18.90
2022-11-02T11:38:59.409Z,20.30
2022-11-02T11:41:27.999Z,24.25
2022-11-02T11:43:56.280Z,15.43
2022-11-02T11:46:24.313Z,20.23
2022-11-02T11:48:56.354Z,14.65
2022-11-02T11:51:32.109Z,46.92
2022-11-02T11:54:20.426Z,58.08
2022-11-02T11:56:49.324Z,21.08
2022-11-02T11:59:29.614Z,17.38
2022-11-02T12:01:59.694Z,15.50
2022-11-02T12:04:30.940Z,19.88
2022-11-02T12:07:23.691Z,19.77
2022-11-02T12:10:02.785Z,13.27
2022-11-02T12:12:47.102Z,13.60
2022-11-02T12:15:25.194Z,11.55
2022-11-02T12:18:06.214Z,14.68
2022-11-02T12:20:55.844Z,12.40
2022-11-02T12:23:40.323Z,14.23
2022-11-02T12:26:22.281Z,10.82
2022-11-02T12:29:02.413Z,12.60
2022-11-02T12:31:36.764Z,11.57
2022-11-02T12:34:28.504Z,12.60
2022-11-02T12:37:35.351Z,13.43
2022-11-02T12:40:16.574Z,11.98
2022-11-02T12:42:54.972Z,18.27
2022-11-02T12:45:29.129Z,20.75
2022-11-02T12:48:00.093Z,11.63
2022-11-02T12:50:38.641Z,18.08
2022-11-02T12:53:23.375Z,14.52
2022-11-02T12:55:55.234Z,13.52
2022-11-02T12:58:27.323Z,13.07
2022-11-02T13:01:12.341Z,12.75
2022-11-02T13:03:48.929Z,10.20
2022-11-02T13:06:21.471Z,14.40
2022-11-02T13:08:55.223Z,11.20
2022-11-02T13:11:28.487Z,13.57
2022-11-02T13:13:59.186Z,11.70
2022-11-02T13:16:36.927Z,9.85
2022-11-02T13:19:06.592Z,10.70
2022-11-02T13:21:43.696Z,13.48
2022-11-02T13:24:19.643Z,13.43
2022-11-02T13:26:57.279Z,14.70
2022-11-02T13:29:37.186Z,10.25
2022-11-02T13:32:11.137Z,14.65
2022-11-02T13:34:42.718Z,13.73
2022-11-02T13:37:15.911Z,14.10
2022-11-02T13:39:51.564Z,11.73
2022-11-02T13:42:38.186Z,17.52
2022-11-02T13:45:38.708Z,13.98
2022-11-02T13:48:33.419Z,13.48
2022-11-02T13:51:06.540Z,11.10
2022-11-02T13:53:38.702Z,10.13
2022-11-02T13:56:10.897Z,13.27
2022-11-02T13:58:50.734Z,17.23
2022-11-02T14:01:20.849Z,11.13
2022-11-02T14:03:56.155Z,14.65
2022-11-02T14:06:28.553Z,10.00
2022-11-02T14:08:59.514Z,12.27
2022-11-02T14:11:50.083Z,11.38
2022-11-02T14:14:23.617Z,15.05
2022-11-02T14:17:13.634Z,14.13
2022-11-02T14:19:56.934Z,16.55
2022-11-02T14:22:24.799Z,12.80
2022-11-02T14:25:05.930Z,14.32
2022-11-02T14:27:35.530Z,14.25
2022-11-02T14:30:03.475Z,10.85
2022-11-02T14:32:52.115Z,15.82
2022-11-02T14:35:39.405Z,16.20
2022-11-02T14:38:39.506Z,13.63
2022-11-02T14:41:23.975Z,14.98
2022-11-02T14:44:15.869Z,16.13
2022-11-02T14:46:56.668Z,15.18
2022-11-02T14:49:28.863Z,13.32
2022-11-02T14:52:04.593Z,14.75
2022-11-02T14:54:35.635Z,15.63
2022-11-02T14:57:07.341Z,13.55
2022-11-02T14:59:39.702Z,14.30
2022-11-02T15:02:13.786Z,13.90
2022-11-02T15:04:50.842Z,14.40
2022-11-02T15:07:23.685Z,14.75
2022-11-02T15:09:54.221Z,14.02
2022-11-02T15:12:28.720Z,17.08
2022-11-02T15:15:00.555Z,12.73
2022-11-02T15:17:54.488Z,15.68
2022-11-02T15:20:33.633Z,13.90
2022-11-02T15:23:29.491Z,16.60
2022-11-02T15:25:59.865Z,14.68
2022-11-02T15:28:30.725Z,13.05
2022-11-02T15:31:05.302Z,15.43
2022-11-02T15:33:37.958Z,16.45
2022-11-02T15:36:09.760Z,18.88
2022-11-02T15:38:40.331Z,16.08
2022-11-02T15:41:20.646Z,15.10
2022-11-02T15:44:00.544Z,15.88
2022-11-02T15:46:43.166Z,16.50
2022-11-02T15:49:26.087Z,14.23
2022-11-02T15:52:04.598Z,17.10
2022-11-02T15:54:50.802Z,17.02
2022-11-02T15:57:30.243Z,22.65
2022-11-02T16:00:13.267Z,30.42
2022-11-02T16:02:44.801Z,28.70
2022-11-02T16:05:23.512Z,25.02
2022-11-02T16:10:41.554Z,23.07
2022-11-02T16:13:17.070Z,23.57
2022-11-02T16:15:46.308Z,20.83
2022-11-02T16:18:26.698Z,18.97
2022-11-02T16:20:57.019Z,26.63
2022-11-02T16:23:28.038Z,22.40
2022-11-02T16:25:58.376Z,26.57
2022-11-02T16:28:28.411Z,19.77
2022-11-02T16:31:12.501Z,22.53
2022-11-02T16:33:47.594Z,26.83
2022-11-02T16:36:18.233Z,21.33
2022-11-02T16:38:54.077Z,25.20
2022-11-02T16:41:22.142Z,20.07
2022-11-02T16:43:51.885Z,22.13
2022-11-02T16:46:30.797Z,24.47
2022-11-02T16:49:13.378Z,32.80
2022-11-02T16:51:41.769Z,22.07
2022-11-02T16:54:30.649Z,24.10
2022-11-02T16:57:03.279Z,20.07
2022-11-02T16:59:36.068Z,26.40
2022-11-02T17:02:06.081Z,25.07
2022-11-02T17:04:42.464Z,25.83
2022-11-02T17:07:14.675Z,27.90
2022-11-02T17:09:43.099Z,21.90
2022-11-02T17:12:16.253Z,26.97
2022-11-02T17:14:46.656Z,19.17
2022-11-02T17:17:36.418Z,25.33
2022-11-02T17:20:18.139Z,22.57
2022-11-02T17:22:55.285Z,24.87
2022-11-02T17:25:25.524Z,22.80
2022-11-02T17:27:55.362Z,26.20
2022-11-02T17:30:49.191Z,26.23
2022-11-02T17:33:24.802Z,27.50
2022-11-02T17:35:55.905Z,20.17
2022-11-02T17:38:26.890Z,24.67
2022-11-02T17:40:55.501Z,15.37
2022-11-02T17:43:23.737Z,19.60
2022-11-02T17:45:58.164Z,20.77
2022-11-02T17:48:28.526Z,24.63
2022-11-02T17:50:59.871Z,22.33
2022-11-02T17:53:28.222Z,19.53
2022-11-02T17:55:56.216Z,22.30
2022-11-02T17:58:24.086Z,21.13
2022-11-02T18:00:54.094Z,24.50
2022-11-02T18:03:25.567Z,19.93
2022-11-02T18:06:00.207Z,22.20
2022-11-02T18:08:28.506Z,17.27
2022-11-02T18:10:56.386Z,17.30
2022-11-02T18:13:25.774Z,14.47
2022-11-02T18:15:53.629Z,23.67
2022-11-02T18:18:21.508Z,14.13
2022-11-02T18:20:49.583Z,16.73
2022-11-02T18:23:19.902Z,17.70
2022-11-02T18:25:47.935Z,19.47
2022-11-02T18:28:15.782Z,16.70
2022-11-02T18:30:45.093Z,13.97
2022-11-02T18:33:13.989Z,21.70
2022-11-02T18:35:42.242Z,17.30
2022-11-02T18:38:10.152Z,17.70
2022-11-02T18:40:39.389Z,17.87
2022-11-02T18:43:07.795Z,20.23
2022-11-02T18:45:35.915Z,16.50
2022-11-02T18:48:04.280Z,17.93
2022-11-02T18:50:32.550Z,16.57
2022-11-02T18:53:00.474Z,15.30
2022-11-02T18:55:28.347Z,17.23
2022-11-02T18:57:57.549Z,16.07
2022-11-02T19:00:25.397Z,16.30
2022-11-02T19:02:53.278Z,15.73
2022-11-02T19:05:38.382Z,20.53
2022-11-02T19:08:23.839Z,13.53
2022-11-02T19:10:52.330Z,15.17
2022-11-02T19:13:21.535Z,16.37
2022-11-02T19:15:49.487Z,15.67
2022-11-02T19:18:17.346Z,15.30
2022-11-02T19:20:45.274Z,13.03
2022-11-02T19:23:13.105Z,12.67
2022-11-02T19:25:40.951Z,14.70
2022-11-02T19:28:09.001Z,17.03
2022-11-02T19:30:39.771Z,15.07
2022-11-02T19:33:08.484Z,16.30
2022-11-02T19:35:36.457Z,15.53
2022-11-02T19:38:04.302Z,17.20
2022-11-02T19:40:32.142Z,19.60
2022-11-02T19:42:59.959Z,13.07
2022-11-02T19:45:27.978Z,18.83
2022-11-02T19:47:57.442Z,14.93
2022-11-02T19:50:25.416Z,13.17
2022-11-02T19:52:53.498Z,15.47
2022-11-02T19:55:25.154Z,12.80
2022-11-02T19:57:53.761Z,16.40
2022-11-02T20:00:21.805Z,16.43
2022-11-02T20:02:50.496Z,12.83
2022-11-02T20:05:19.798Z,16.53
2022-11-02T20:07:47.711Z,11.17
2022-11-02T20:10:15.742Z,15.83
2022-11-02T20:12:43.640Z,16.63
2022-11-02T20:15:12.227Z,14.60
2022-11-02T20:17:58.226Z,10.83
2022-11-02T20:20:29.258Z,13.47
2022-11-02T20:22:57.086Z,11.80
2022-11-02T20:25:25.718Z,9.43
2022-11-02T20:27:54.059Z,13.77
2022-11-02T20:30:22.407Z,17.27
2022-11-02T20:32:50.587Z,13.03
2022-11-02T20:35:22.826Z,11.23
2022-11-02T20:37:52.079Z,15.03
2022-11-02T20:40:19.986Z,16.40
2022-11-02T20:42:50.335Z,15.60
2022-11-02T20:45:18.934Z,13.63
2022-11-02T20:47:46.798Z,15.53
2022-11-02T20:50:17.535Z,13.13
2022-11-02T20:52:46.777Z,11.90
2022-11-02T20:55:16.404Z,12.17
2022-11-02T20:57:44.212Z,16.23
2022-11-02T21:00:14.190Z,13.47
2022-11-02T21:02:42.020Z,14.03
2022-11-02T21:05:10.566Z,15.47
2022-11-02T21:07:38.458Z,13.07
2022-11-02T21:10:07.551Z,17.57
2022-11-02T21:12:54.507Z,13.30
2022-11-02T21:15:22.351Z,11.50
2022-11-02T21:17:50.202Z,17.50
2022-11-02T21:20:34.984Z,13.07
2022-11-02T21:23:03.324Z,13.20
2022-11-02T21:25:31.949Z,13.00
2022-11-02T21:28:01.419Z,12.53
2022-11-02T21:30:30.942Z,9.57
2022-11-02T21:32:59.038Z,15.53
2022-11-02T21:35:27.003Z,11.83
2022-11-02T21:37:57.497Z,11.37
2022-11-02T21:40:25.622Z,12.60
2022-11-02T21:42:53.482Z,14.70
2022-11-02T21:45:25.994Z,11.93
2022-11-02T21:47:54.200Z,11.57
2022-11-02T21:50:22.040Z,11.03
2022-11-02T21:52:49.888Z,13.00
2022-11-02T21:55:18.264Z,11.90
2022-11-02T21:57:46.128Z,14.37
2022-11-02T22:00:15.014Z,13.23
2022-11-02T22:02:43.353Z,11.77
2022-11-02T22:05:31.233Z,15.13
2022-11-02T22:08:16.685Z,13.20
2022-11-02T22:10:44.634Z,13.03
2022-11-02T22:13:29.795Z,10.27
2022-11-02T22:15:57.670Z,11.60
2022-11-02T22:18:26.870Z,10.70
2022-11-02T22:20:55.342Z,10.40
2022-11-02T22:23:23.159Z,9.13
2022-11-02T22:25:58.315Z,9.40
2022-11-02T22:28:29.540Z,12.17
2022-11-02T22:30:57.593Z,9.23
2022-11-02T22:33:27.482Z,10.33
2022-11-02T22:35:55.321Z,12.10
2022-11-02T22:38:40.435Z,11.37
2022-11-02T22:41:08.291Z,12.03
2022-11-02T22:43:36.117Z,11.90
2022-11-02T22:46:05.693Z,11.40
2022-11-02T22:48:36.430Z,9.80
2022-11-02T22:51:06.077Z,10.40
2022-11-02T22:53:34.548Z,13.73
2022-11-02T22:56:03.809Z,7.80
2022-11-02T22:58:32.924Z,10.43
2022-11-02T23:01:01.019Z,9.23
2022-11-02T23:03:31.537Z,7.57
2022-11-02T23:06:01.004Z,8.93
2022-11-02T23:08:29.923Z,9.37
2022-11-02T23:11:17.348Z,8.77
2022-11-02T23:13:48.467Z,6.27
2022-11-02T23:16:22.909Z,9.87
2022-11-02T23:19:13.778Z,8.23
2022-11-02T23:21:45.227Z,7.70
2022-11-02T23:24:30.654Z,7.80
2022-11-02T23:26:59.034Z,11.23
2022-11-02T23:29:44.546Z,9.93
2022-11-02T23:32:29.541Z,8.60
2022-11-02T23:35:16.265Z,10.47
2022-11-02T23:37:47.047Z,6.73
2022-11-02T23:40:16.617Z,9.30
2022-11-02T23:42:44.449Z,9.17
2022-11-02T23:45:12.866Z,7.80
2022-11-02T23:47:57.460Z,9.27
2022-11-02T23:50:44.074Z,8.37
2022-11-02T23:53:32.740Z,8.27
2022-11-02T23:56:18.786Z,9.17
2022-11-02T23:58:46.941Z,8.30
